Portada
METAR-TAF:

METAR-TAF

Aeroports :

Aeroport de Bèrgam-Orio al Serio

Bèrgam, Itàlia

latitud: 45-40N, longitud: 009-42E, altitud: 238 m

Observació

L'informe es va fer fa 32 minuts, a les 21:50 UTC
Vent 2 kt amb direcció variable
Temperatura 18°C
Humitat 88%
Pressió 1014 hPa
Visibilitat 10 km o més
Cel ennuvolat a una alçada de 12000 ft

METAR: LIME 152150Z VRB02KT 9999 BKN120 18/16 Q1014 NOSIG

Hora: 00:22 (22:22 UTC)

Pronòstic

L'informe es va fer fa 5 hores i 22 minuts, a les 17:00 UTC
Pronòstic vàlid del 15 a les 18 UTC al 16 a les 18 UTC
Vent 5 kt amb direcció variable
Visibilitat 10 km o més
Núvols disperses a una alçada de 3000 ft
Núvols disperses a una alçada de 7000 ft
Probabilitat 30% :
Temporalment
l' 15 a les 18 UTC al 15 a les 21 UTC
xàfecs de pluja

TAF: LIME 151700Z 1518/1618 VRB05KT 9999 SCT030 SCT070 PROB30 TEMPO 1518/1521 SHRA

Observacions i pronòstics meteorològics de més de 4000 aeroports (METAR i TAF).

Les estacions disponibles són els punts grocs i vermells al mapa.

Posi el ratolí al punt desitjat per veure el nom de l'estació.

Feu clic per veure les observacions i els pronòstics meteorològics.

Per canviar el mapa: feu clic els botons verds amb una creu de color negre per apropar; al botó verd amb un guió per allunyar la imatge; o en les fletxes verdes per a mapes adjacents.


METAR-TAF: